Terminal Aerodrome Forecast
Issued by NWS

Home | Current Version | Previous Version | Text Only | Print | Product List | Glossary On
Versions: 1 2 3 4 5 6 7 8 9 10 11 12 13 14 15 16 17 18 19 20 21 22 23 24 25 26
000
FTUS41 KBGM 031729
TAFITH
TAF
KITH 031729Z 0318/0418 31010G19KT P6SM OVC012
      TEMPO 0318/0322 2SM -SHSN OVC008
     FM040100 31009KT P6SM OVC015
     FM041400 32005KT P6SM BKN022
     FM041700 31006KT P6SM BKN035=

USA.gov is the U.S. government's official web portal to all federal, state and local government web resources and services.